Time;durP1;ratioP1;P1;durP2;ratioP2;P2;SDS_P1;SDS_P2;PMS_P1;PMS_P2;Temp;Humidity;BMP_temperature;BMP_pressure;BME280_temperature;BME280_humidity;BME280_pressure;Samples;Min_cycle;Max_cycle;Signal;HPM_P1;HPM_P2
2023/09/07 00:00:24;;;;;;;;;;;;;;;25.12;40.67;101430.13;7393714;19;1784;-44
2023/09/07 00:02:52;;;;;;;;;;;;;;;25.21;40.65;101431.88;7393792;19;1554;-43
2023/09/07 00:05:20;;;;;;;;;;;;;;;25.14;41.82;101444.34;7393544;19;1650;-44
2023/09/07 00:07:48;;;;;;;;;;;;;;;25.17;40.79;101428.63;7393770;19;1576;-43
2023/09/07 00:10:17;;;;;;;;;;;;;;;25.12;40.78;101422.00;7394153;19;1608;-44
2023/09/07 00:12:46;;;;;;;;;;;;;;;25.20;40.75;101427.44;7399043;19;1556;-44
2023/09/07 00:15:18;;;;;;;;;;;;;;;25.16;40.67;101436.91;7399917;19;1826;-44
2023/09/07 00:17:47;;;;;;;;;;;;;;;25.20;40.29;101427.44;7401602;19;1506;-44
2023/09/07 00:20:16;;;;;;;;;;;;;;;25.20;39.88;101428.28;7401932;19;1392;-44
2023/09/07 00:22:44;;;;;;;;;;;;;;;25.20;40.25;101436.41;7402172;19;1415;-44
2023/09/07 00:25:13;;;;;;;;;;;;;;;25.22;40.37;101439.00;7401897;19;1953;-44
2023/09/07 00:27:41;;;;;;;;;;;;;;;25.17;40.19;101433.19;7400552;19;1708;-44
2023/09/07 00:30:10;;;;;;;;;;;;;;;25.21;39.94;101426.47;7400886;19;1725;-44
2023/09/07 00:32:41;;;;;;;;;;;;;;;25.18;39.95;101424.06;7399845;19;1469;-44
2023/09/07 00:35:11;;;;;;;;;;;;;;;25.15;40.37;101424.41;7399794;19;1860;-44
2023/09/07 00:37:40;;;;;;;;;;;;;;;25.22;40.38;101419.22;7400149;19;1806;-44
2023/09/07 00:40:11;;;;;;;;;;;;;;;25.18;40.57;101426.75;7400769;19;2122;-44
2023/09/07 00:42:39;;;;;;;;;;;;;;;25.19;40.46;101428.47;7399022;19;1515;-44
2023/09/07 00:45:08;;;;;;;;;;;;;;;25.06;40.88;101417.22;7399304;19;1620;-44
2023/09/07 00:47:37;;;;;;;;;;;;;;;25.10;41.12;101426.72;7400775;19;1804;-44
2023/09/07 00:50:09;;;;;;;;;;;;;;;25.02;41.53;101424.81;7401681;19;1427;-44
2023/09/07 00:52:39;;;;;;;;;;;;;;;25.05;41.08;101412.81;7400009;19;1507;-44
2023/09/07 00:55:08;;;;;;;;;;;;;;;25.05;41.10;101423.63;7399862;19;1862;-44
2023/09/07 00:57:36;;;;;;;;;;;;;;;25.04;40.78;101416.53;7383916;19;1462;-42
2023/09/07 01:00:07;;;;;;;;;;;;;;;25.11;40.92;101417.56;7399857;19;1490;-44
2023/09/07 01:02:35;;;;;;;;;;;;;;;25.06;41.33;101419.94;7398791;19;1522;-44
2023/09/07 01:05:05;;;;;;;;;;;;;;;25.03;41.12;101426.53;7398798;19;1372;-42
2023/09/07 01:07:38;;;;;;;;;;;;;;;24.95;40.95;101402.97;7400214;19;1391;-44
2023/09/07 01:10:07;;;;;;;;;;;;;;;25.05;41.08;101420.94;7400578;19;1518;-44
2023/09/07 01:12:35;;;;;;;;;;;;;;;24.94;41.54;101431.00;7398277;19;1438;-44
2023/09/07 01:15:04;;;;;;;;;;;;;;;25.02;41.16;101422.09;7399356;19;1854;-44
2023/09/07 01:17:33;;;;;;;;;;;;;;;24.98;41.76;101418.03;7400239;19;1128;-44
2023/09/07 01:20:05;;;;;;;;;;;;;;;24.96;41.25;101423.59;7401456;19;1006;-44
2023/09/07 01:22:36;;;;;;;;;;;;;;;24.97;40.94;101400.09;7399891;19;1788;-43
2023/09/07 01:25:05;;;;;;;;;;;;;;;24.99;40.84;101423.28;7395648;19;1788;-44
2023/09/07 01:27:33;;;;;;;;;;;;;;;24.96;40.91;101420.88;7399027;19;1478;-44
2023/09/07 01:30:02;;;;;;;;;;;;;;;25.01;40.97;101407.72;7400604;19;1721;-44
2023/09/07 01:32:30;;;;;;;;;;;;;;;25.06;40.69;101411.81;7398322;19;1384;-44
2023/09/07 01:35:00;;;;;;;;;;;;;;;24.95;40.90;101410.25;7399365;19;1839;-44
2023/09/07 01:37:28;;;;;;;;;;;;;;;24.97;40.53;101398.25;7398669;19;1399;-44
2023/09/07 01:39:59;;;;;;;;;;;;;;;24.99;40.64;101404.34;7398263;19;1490;-42
2023/09/07 01:42:27;;;;;;;;;;;;;;;24.94;40.96;101412.06;7396419;19;1651;-44
2023/09/07 01:44:55;;;;;;;;;;;;;;;24.96;40.75;101406.50;7399025;19;1681;-44
2023/09/07 01:47:24;;;;;;;;;;;;;;;24.94;40.92;101398.53;7398230;19;1487;-42
2023/09/07 01:49:52;;;;;;;;;;;;;;;24.99;40.87;101409.75;7397682;19;1521;-44
2023/09/07 01:52:20;;;;;;;;;;;;;;;25.06;40.57;101409.09;7398740;19;1272;-44
2023/09/07 01:54:49;;;;;;;;;;;;;;;24.99;40.49;101409.75;7397256;19;1842;-44
2023/09/07 01:57:19;;;;;;;;;;;;;;;25.00;40.54;101411.44;7384482;19;1740;-44
2023/09/07 01:59:48;;;;;;;;;;;;;;;25.01;40.69;101418.56;7396493;19;1451;-44
2023/09/07 02:02:16;;;;;;;;;;;;;;;25.04;40.58;101408.41;7396739;19;1535;-44
2023/09/07 02:04:45;;;;;;;;;;;;;;;24.94;40.74;101416.66;7397785;19;1502;-44
2023/09/07 02:07:14;;;;;;;;;;;;;;;24.97;40.57;101422.59;7397648;19;1495;-42
2023/09/07 02:09:43;;;;;;;;;;;;;;;25.05;40.65;101429.03;7396557;19;1732;-44
2023/09/07 02:12:11;;;;;;;;;;;;;;;24.97;40.55;101411.78;7397710;19;1399;-44
2023/09/07 02:14:42;;;;;;;;;;;;;;;25.10;40.82;101426.72;7396993;19;1935;-44
2023/09/07 02:17:14;;;;;;;;;;;;;;;24.96;40.54;101420.03;7397738;19;1720;-44
2023/09/07 02:19:42;;;;;;;;;;;;;;;24.94;40.75;101416.66;7397046;19;1822;-44
2023/09/07 02:22:10;;;;;;;;;;;;;;;24.97;40.74;101419.88;7396463;19;1390;-44
2023/09/07 02:24:38;;;;;;;;;;;;;;;24.96;41.01;101415.47;7396929;19;1502;-44
2023/09/07 02:27:07;;;;;;;;;;;;;;;24.93;41.17;101421.22;7396714;19;1665;-44
2023/09/07 02:29:35;;;;;;;;;;;;;;;24.90;40.83;101431.50;7397596;19;1541;-44
2023/09/07 02:32:06;;;;;;;;;;;;;;;24.95;41.06;101413.78;7394675;19;1790;-42
2023/09/07 02:34:36;;;;;;;;;;;;;;;24.87;40.88;101413.72;7395563;19;1811;-44
2023/09/07 02:37:04;;;;;;;;;;;;;;;24.85;40.91;101413.03;7396817;19;1736;-44
2023/09/07 02:39:33;;;;;;;;;;;;;;;24.94;40.74;101416.66;7397545;19;1546;-44
2023/09/07 02:42:02;;;;;;;;;;;;;;;24.92;40.71;101407.84;7396232;19;1518;-44
2023/09/07 02:44:30;;;;;;;;;;;;;;;24.95;40.73;101412.94;7396010;19;1570;-44
2023/09/07 02:46:58;;;;;;;;;;;;;;;24.87;40.84;101426.38;7396931;19;1146;-44
2023/09/07 02:49:29;;;;;;;;;;;;;;;24.76;40.91;101411.28;7395534;19;1467;-44
2023/09/07 02:51:57;;;;;;;;;;;;;;;24.79;40.90;101414.53;7395846;19;1660;-44
2023/09/07 02:54:26;;;;;;;;;;;;;;;24.93;40.94;101409.53;7395295;19;1772;-44
2023/09/07 02:56:54;;;;;;;;;;;;;;;24.92;40.98;101424.91;7393753;19;2163;-44
2023/09/07 02:59:22;;;;;;;;;;;;;;;24.89;40.77;101416.25;7377722;19;1407;-43
2023/09/07 03:01:51;;;;;;;;;;;;;;;24.92;40.70;101414.09;7395138;19;1505;-44
2023/09/07 03:04:19;;;;;;;;;;;;;;;24.97;40.73;101427.16;7395081;19;1493;-44
2023/09/07 03:06:50;;;;;;;;;;;;;;;24.94;40.71;101416.66;7395737;19;1230;-44
2023/09/07 03:09:18;;;;;;;;;;;;;;;24.95;40.87;101427.31;7395824;19;1804;-44
2023/09/07 03:11:46;;;;;;;;;;;;;;;24.93;40.67;101418.50;7394874;19;1758;-44
2023/09/07 03:14:15;;;;;;;;;;;;;;;24.94;40.82;101420.19;7394538;19;1558;-44
2023/09/07 03:16:43;;;;;;;;;;;;;;;24.82;40.76;101424.16;7392189;19;1844;-42
2023/09/07 03:19:11;;;;;;;;;;;;;;;24.84;40.80;101426.72;7392742;19;1546;-44
2023/09/07 03:21:40;;;;;;;;;;;;;;;24.80;40.98;101437.00;7393801;19;1499;-44
2023/09/07 03:24:11;;;;;;;;;;;;;;;24.78;41.16;101445.28;7394198;19;1731;-44
2023/09/07 03:26:39;;;;;;;;;;;;;;;24.76;41.33;101447.28;7394440;19;1626;-44
2023/09/07 03:29:07;;;;;;;;;;;;;;;24.73;41.48;101452.16;7394461;19;1435;-44
2023/09/07 03:31:36;;;;;;;;;;;;;;;24.72;41.19;101450.47;7394823;19;1499;-45
2023/09/07 03:34:05;;;;;;;;;;;;;;;24.69;41.29;101473.28;7395577;19;1495;-44
2023/09/07 03:36:33;;;;;;;;;;;;;;;24.53;42.11;101438.84;7395814;19;1841;-44
2023/09/07 03:39:02;;;;;;;;;;;;;;;24.11;43.13;101463.72;7396118;19;1549;-44
2023/09/07 03:41:33;;;;;;;;;;;;;;;23.76;44.26;101470.72;7395784;19;1958;-44
2023/09/07 03:44:01;;;;;;;;;;;;;;;23.42;45.77;101479.41;7390585;19;1503;-44
2023/09/07 03:46:29;;;;;;;;;;;;;;;23.47;46.47;101489.75;7394781;19;1565;-44
2023/09/07 03:48:58;;;;;;;;;;;;;;;23.61;46.16;101493.81;7402032;19;1511;-44
2023/09/07 03:51:26;;;;;;;;;;;;;;;23.66;45.86;101486.13;7402868;19;1470;-44
2023/09/07 03:53:54;;;;;;;;;;;;;;;23.72;45.74;101490.09;7401164;19;1530;-44
2023/09/07 03:56:23;;;;;;;;;;;;;;;23.60;46.29;101475.94;7400014;19;1842;-44
2023/09/07 03:58:54;;;;;;;;;;;;;;;23.59;46.25;101490.41;7385879;19;1453;-42
2023/09/07 04:01:22;;;;;;;;;;;;;;;23.65;45.68;101492.50;7403552;19;1808;-44
2023/09/07 04:03:50;;;;;;;;;;;;;;;23.94;44.32;101488.88;7395105;19;1855;-44
2023/09/07 04:06:19;;;;;;;;;;;;;;;24.26;43.42;101487.53;7400822;19;1495;-42
2023/09/07 04:08:47;;;;;;;;;;;;;;;24.45;42.69;101491.94;7403434;19;1805;-44
2023/09/07 04:11:15;;;;;;;;;;;;;;;24.50;42.80;101471.56;7402942;19;1811;-44
2023/09/07 04:13:44;;;;;;;;;;;;;;;24.50;42.46;101482.41;7402272;19;1461;-43
2023/09/07 04:16:15;;;;;;;;;;;;;;;24.53;42.21;101484.81;7400864;19;1837;-42
2023/09/07 04:18:44;;;;;;;;;;;;;;;24.59;42.11;101497.69;7401139;19;1463;-44
2023/09/07 04:21:12;;;;;;;;;;;;;;;24.56;42.16;101484.47;7401259;19;1658;-44
2023/09/07 04:23:41;;;;;;;;;;;;;;;24.68;42.39;101497.78;7401733;19;1420;-44
2023/09/07 04:26:10;;;;;;;;;;;;;;;24.59;42.55;101489.59;7399837;19;1899;-44
2023/09/07 04:28:38;;;;;;;;;;;;;;;24.63;42.81;101489.25;7398629;19;1321;-44
2023/09/07 04:31:08;;;;;;;;;;;;;;;24.69;42.11;101491.34;7401775;19;1476;-44
2023/09/07 04:33:39;;;;;;;;;;;;;;;24.71;41.95;101494.75;7401410;19;1533;-44
2023/09/07 04:36:11;;;;;;;;;;;;;;;24.68;41.86;101497.78;7401920;19;1853;-44
2023/09/07 04:38:39;;;;;;;;;;;;;;;24.68;41.94;101509.44;7400855;19;1727;-44
2023/09/07 04:41:10;;;;;;;;;;;;;;;24.76;43.06;101484.31;7398042;19;1345;-44
2023/09/07 04:43:36;;;;;;;;;;;;;;;24.60;42.41;101490.44;7396049;19;1468;-44
2023/09/07 04:46:04;;;;;;;;;;;;;;;24.61;43.35;101502.94;7397913;19;1466;-44
2023/09/07 04:48:34;;;;;;;;;;;;;;;24.54;43.29;101508.13;7399720;19;1427;-44
2023/09/07 04:51:05;;;;;;;;;;;;;;;24.65;43.24;101508.88;7399818;19;1547;-44
2023/09/07 04:53:36;;;;;;;;;;;;;;;24.64;42.98;101493.69;7400786;19;1593;-44
2023/09/07 04:56:04;;;;;;;;;;;;;;;24.65;42.23;101511.59;7400247;19;2034;-44
2023/09/07 04:58:33;;;;;;;;;;;;;;;24.58;42.02;101512.22;7382779;19;1791;-44
2023/09/07 05:01:04;;;;;;;;;;;;;;;24.56;41.91;101500.69;7396452;19;1900;-44
2023/09/07 05:03:33;;;;;;;;;;;;;;;24.60;42.17;101504.78;7395751;19;1847;-44
2023/09/07 05:06:02;;;;;;;;;;;;;;;24.53;41.91;101511.84;7395642;19;1429;-43
2023/09/07 05:08:34;;;;;;;;;;;;;;;24.51;42.19;101500.34;7398757;19;1392;-44
2023/09/07 05:11:03;;;;;;;;;;;;;;;24.60;42.30;101517.47;7390036;19;1414;-42
2023/09/07 05:13:31;;;;;;;;;;;;;;;24.48;42.14;101514.13;7389058;19;1498;-44
2023/09/07 05:16:01;;;;;;;;;;;;;;;24.65;42.15;101525.09;7385154;19;1876;-46
2023/09/07 05:18:30;;;;;;;;;;;;;;;24.70;42.08;101529.06;7391839;19;1424;-44
2023/09/07 05:20:58;;;;;;;;;;;;;;;24.74;42.16;101518.78;7390959;19;1502;-45
2023/09/07 05:23:26;;;;;;;;;;;;;;;24.84;41.72;101516.00;7391577;19;1828;-46
2023/09/07 05:25:57;;;;;;;;;;;;;;;24.94;41.48;101524.88;7393895;19;1582;-46
2023/09/07 05:28:26;;;;;;;;;;;;;;;24.88;41.83;101520.94;7390029;19;1645;-45
2023/09/07 05:30:55;;;;;;;;;;;;;;;24.86;41.63;101530.22;7391994;19;1417;-45
2023/09/07 05:33:23;;;;;;;;;;;;;;;25.02;41.48;101533.03;7389504;19;1669;-46
2023/09/07 05:35:51;;;;;;;;;;;;;;;25.05;40.79;101523.75;7391350;19;1841;-46
2023/09/07 05:38:19;;;;;;;;;;;;;;;25.14;41.12;101520.13;7390848;19;1511;-45
2023/09/07 05:40:50;;;;;;;;;;;;;;;25.09;40.80;101520.59;7388639;19;1457;-45
2023/09/07 05:43:21;;;;;;;;;;;;;;;25.11;41.21;101521.28;7387463;19;1511;-44
2023/09/07 05:58:24;;;;;;;;;;;;;;;25.10;40.51;101529.56;6744209;19;10002097;-45
2023/09/07 06:00:52;;;;;;;;;;;;;;;24.41;40.52;101416.56;7418168;19;1799;-44
2023/09/07 06:03:20;;;;;;;;;;;;;;;25.16;40.67;101524.34;7418038;19;1680;-44
2023/09/07 06:05:49;;;;;;;;;;;;;;;25.13;41.28;101527.41;7416908;19;1980;-45
2023/09/07 06:08:17;;;;;;;;;;;;;;;25.18;40.65;101526.91;7420851;19;1492;-44
2023/09/07 06:10:45;;;;;;;;;;;;;;;25.24;41.93;101523.59;7421893;19;1657;-45
2023/09/07 06:13:14;;;;;;;;;;;;;;;25.12;40.91;101528.38;7422792;19;1893;-45
2023/09/07 06:15:44;;;;;;;;;;;;;;;25.14;40.78;101541.78;7425217;19;1201;-45
2023/09/07 06:18:13;;;;;;;;;;;;;;;25.13;41.64;101535.50;7424320;19;1468;-44
2023/09/07 06:20:41;;;;;;;;;;;;;;;25.11;41.53;101533.94;7421349;19;1398;-44
2023/09/07 06:23:09;;;;;;;;;;;;;;;25.16;41.20;101540.59;7420707;19;1499;-45
2023/09/07 06:25:37;;;;;;;;;;;;;;;25.23;41.06;101535.47;7419621;19;1497;-44
2023/09/07 06:28:06;;;;;;;;;;;;;;;25.27;40.04;101536.84;7421263;19;1464;-45
2023/09/07 06:30:34;;;;;;;;;;;;;;;25.15;40.25;101529.94;7420090;19;1491;-45
2023/09/07 06:33:06;;;;;;;;;;;;;;;25.19;39.55;101536.75;7420542;19;1535;-45
2023/09/07 06:35:34;;;;;;;;;;;;;;;25.04;40.94;101535.59;7422696;19;1443;-44
2023/09/07 06:38:02;;;;;;;;;;;;;;;24.44;42.45;101552.44;7424835;19;1527;-44
2023/09/07 06:40:31;;;;;;;;;;;;;;;24.14;43.74;101554.47;7423782;19;1493;-44
2023/09/07 06:43:00;;;;;;;;;;;;;;;24.02;44.54;101556.50;7426240;19;1103;-43
2023/09/07 06:45:28;;;;;;;;;;;;;;;24.27;44.40;101549.53;7424240;19;1700;-45
2023/09/07 06:47:56;;;;;;;;;;;;;;;24.30;44.80;101548.41;7418185;19;1865;-44
2023/09/07 06:50:27;;;;;;;;;;;;;;;24.29;45.10;101546.69;7423143;19;1738;-44
2023/09/07 06:52:55;;;;;;;;;;;;;;;24.24;45.57;101535.50;7421952;19;1646;-44
2023/09/07 06:55:24;;;;;;;;;;;;;;;24.24;45.68;101554.41;7424304;19;1743;-44
2023/09/07 06:57:52;;;;;;;;;;;;;;;24.22;46.19;101550.00;7412963;19;1694;-45
2023/09/07 07:00:20;;;;;;;;;;;;;;;24.16;46.53;101560.56;7396721;19;1742;-44
2023/09/07 07:02:49;;;;;;;;;;;;;;;24.22;46.63;101539.19;7392007;19;1528;-44
2023/09/07 07:05:17;;;;;;;;;;;;;;;24.23;46.86;101537.31;7395624;19;1468;-45
2023/09/07 07:07:48;;;;;;;;;;;;;;;24.12;47.12;101551.91;7394550;19;1840;-44
2023/09/07 07:10:16;;;;;;;;;;;;;;;24.09;47.31;101557.59;7395095;19;1769;-44
2023/09/07 07:12:45;;;;;;;;;;;;;;;24.17;47.37;101536.09;7389850;19;1995;-45
2023/09/07 07:15:13;;;;;;;;;;;;;;;24.17;47.83;101554.13;7390359;19;1825;-44
2023/09/07 07:17:41;;;;;;;;;;;;;;;24.02;48.59;101546.53;7390072;19;1802;-44
2023/09/07 07:20:10;;;;;;;;;;;;;;;24.02;48.68;101551.09;7390084;19;1527;-44
2023/09/07 07:22:38;;;;;;;;;;;;;;;24.07;48.71;101542.53;7391346;19;1579;-44
2023/09/07 07:25:10;;;;;;;;;;;;;;;24.04;48.96;101542.84;7393071;19;1655;-45
2023/09/07 07:27:38;;;;;;;;;;;;;;;24.11;48.93;101543.94;7390735;19;1849;-45
2023/09/07 07:30:07;;;;;;;;;;;;;;;23.99;49.28;101540.56;7394824;19;1572;-45
2023/09/07 07:32:35;;;;;;;;;;;;;;;24.04;49.31;101553.66;7393889;19;1517;-45
2023/09/07 07:35:04;;;;;;;;;;;;;;;23.97;49.69;101547.97;7392958;19;1544;-45
2023/09/07 07:37:33;;;;;;;;;;;;;;;23.94;49.68;101538.34;7392205;19;1492;-44
2023/09/07 07:40:01;;;;;;;;;;;;;;;23.96;49.71;101543.59;7393795;19;1837;-44
2023/09/07 07:42:32;;;;;;;;;;;;;;;23.96;50.01;101540.91;7391485;19;1789;-45
2023/09/07 07:45:00;;;;;;;;;;;;;;;23.98;49.81;101538.91;7393769;19;1454;-44
2023/09/07 07:47:29;;;;;;;;;;;;;;;24.01;49.94;101538.56;7392564;19;1834;-44
2023/09/07 07:49:57;;;;;;;;;;;;;;;23.95;50.15;101533.78;7392861;19;1940;-44
2023/09/07 07:52:26;;;;;;;;;;;;;;;23.97;50.07;101542.59;7388960;19;1843;-43
2023/09/07 07:54:54;;;;;;;;;;;;;;;23.92;50.04;101540.34;7390854;19;1642;-45
2023/09/07 07:57:23;;;;;;;;;;;;;;;23.94;50.46;101532.09;7389984;19;1501;-44
2023/09/07 07:59:54;;;;;;;;;;;;;;;23.90;50.38;101534.25;7391872;19;1436;-44
2023/09/07 08:02:22;;;;;;;;;;;;;;;23.88;50.63;101532.69;7391003;19;1399;-50
2023/09/07 08:04:50;;;;;;;;;;;;;;;23.89;50.52;101528.97;7392039;19;1622;-45
2023/09/07 08:07:19;;;;;;;;;;;;;;;23.87;50.85;101552.59;7391251;19;1849;-49
2023/09/07 08:09:47;;;;;;;;;;;;;;;24.04;50.42;101537.44;7388728;19;1694;-45
2023/09/07 08:12:16;;;;;;;;;;;;;;;24.35;49.58;101528.00;7391454;19;1470;-44
2023/09/07 08:14:44;;;;;;;;;;;;;;;24.56;49.27;101516.09;7390959;19;1570;-47
2023/09/07 08:17:15;;;;;;;;;;;;;;;24.74;48.62;101518.78;7388638;19;1616;-44
2023/09/07 08:19:43;;;;;;;;;;;;;;;25.09;48.18;101522.44;7391927;19;1521;-45
2023/09/07 08:22:12;;;;;;;;;;;;;;;25.24;47.45;101517.34;7389292;19;1400;-45
2023/09/07 08:24:42;;;;;;;;;;;;;;;25.26;47.62;101509.91;7390943;19;1381;-44
2023/09/07 08:27:11;;;;;;;;;;;;;;;25.40;47.30;101514.75;7388481;19;1872;-43
2023/09/07 08:29:39;;;;;;;;;;;;;;;25.16;48.50;101510.81;7390560;19;1422;-44
2023/09/07 08:32:08;;;;;;;;;;;;;;;25.36;48.05;101503.38;7389816;19;1468;-44
2023/09/07 08:34:40;;;;;;;;;;;;;;;25.19;47.96;101497.00;7391048;19;1304;-45
2023/09/07 08:37:09;;;;;;;;;;;;;;;25.42;47.49;101511.88;7391698;19;1309;-44
2023/09/07 08:39:39;;;;;;;;;;;;;;;25.44;47.84;101509.84;7390157;19;1849;-44
2023/09/07 08:42:07;;;;;;;;;;;;;;;25.52;47.48;101494.50;7390999;19;1488;-45
2023/09/07 08:44:36;;;;;;;;;;;;;;;25.67;47.43;101504.75;7390807;19;1371;-44
2023/09/07 08:47:05;;;;;;;;;;;;;;;25.53;48.23;101495.38;7382190;19;1851;-44
2023/09/07 08:49:35;;;;;;;;;;;;;;;25.45;48.30;101498.03;7390929;19;1639;-44
2023/09/07 08:52:07;;;;;;;;;;;;;;;25.54;48.33;101494.34;7387981;19;1516;-44
2023/09/07 08:54:35;;;;;;;;;;;;;;;25.50;48.56;101487.56;7388216;19;2390;-49
2023/09/07 08:57:06;;;;;;;;;;;;;;;25.52;48.25;101490.94;7389565;19;1526;-44
2023/09/07 08:59:34;;;;;;;;;;;;;;;25.42;48.70;101465.84;7389167;19;1573;-46
2023/09/07 09:02:04;;;;;;;;;;;;;;;25.57;48.38;101488.63;7388056;19;1520;-44
2023/09/07 09:04:32;;;;;;;;;;;;;;;25.36;49.02;101465.47;7389102;19;1533;-45
2023/09/07 09:07:03;;;;;;;;;;;;;;;25.53;49.00;101473.69;7391602;19;1839;-44
2023/09/07 09:09:34;;;;;;;;;;;;;;;25.59;48.83;101468.47;7380425;19;1469;-61
2023/09/07 09:12:09;;;;;;;;;;;;;;;25.61;48.89;101484.56;7385251;19;1729;-44
2023/09/07 09:14:38;;;;;;;;;;;;;;;25.52;48.87;101475.53;7388873;19;1517;-45
2023/09/07 09:17:06;;;;;;;;;;;;;;;25.64;49.20;101483.38;7389892;19;1547;-44
2023/09/07 09:19:35;;;;;;;;;;;;;;;25.82;47.56;101453.50;7389021;19;1418;-45
2023/09/07 09:22:03;;;;;;;;;;;;;;;25.95;47.16;101459.31;7390561;19;1449;-45
2023/09/07 09:24:37;;;;;;;;;;;;;;;25.91;48.18;101444.41;7390542;19;1476;-44
2023/09/07 09:27:05;;;;;;;;;;;;;;;26.07;46.88;101452.56;7388598;19;1860;-44
2023/09/07 09:29:35;;;;;;;;;;;;;;;26.05;47.82;101454.59;7389951;19;1465;-44
2023/09/07 09:32:05;;;;;;;;;;;;;;;26.08;47.09;101448.00;7391069;19;1547;-44
2023/09/07 09:34:34;;;;;;;;;;;;;;;26.11;46.23;101458.53;7391534;19;1164;-44
2023/09/07 09:37:03;;;;;;;;;;;;;;;26.03;46.15;101445.78;7389471;19;1834;-44
2023/09/07 09:39:32;;;;;;;;;;;;;;;25.96;46.21;101433.91;7390898;19;1509;-44
2023/09/07 09:42:04;;;;;;;;;;;;;;;25.95;46.07;101448.50;7390743;19;1521;-44
2023/09/07 09:44:33;;;;;;;;;;;;;;;25.97;46.28;101432.91;7391259;19;1716;-45
2023/09/07 09:47:01;;;;;;;;;;;;;;;26.03;46.54;101450.38;7389926;19;1845;-45
2023/09/07 09:49:30;;;;;;;;;;;;;;;26.06;46.13;101422.94;7388926;19;1595;-45
2023/09/07 09:51:59;;;;;;;;;;;;;;;26.08;46.55;101448.84;7390881;19;1603;-44
2023/09/07 09:54:28;;;;;;;;;;;;;;;26.14;46.28;101421.09;7392084;19;1379;-44
2023/09/07 09:56:56;;;;;;;;;;;;;;;26.07;46.63;101430.91;7390763;19;1770;-44
2023/09/07 09:59:27;;;;;;;;;;;;;;;25.99;47.63;101428.16;7387272;19;1549;-45
2023/09/07 10:01:57;;;;;;;;;;;;;;;25.96;47.13;101440.19;7386594;19;1810;-44
2023/09/07 10:04:25;;;;;;;;;;;;;;;26.01;47.42;101433.44;7388977;19;1548;-44
2023/09/07 10:06:57;;;;;;;;;;;;;;;25.98;47.59;101410.19;7386454;19;1351;-45
2023/09/07 10:09:25;;;;;;;;;;;;;;;25.97;47.65;101425.63;7385171;19;1458;-44
2023/09/07 10:11:55;;;;;;;;;;;;;;;25.97;47.98;101419.38;7386448;19;1557;-44
2023/09/07 10:14:23;;;;;;;;;;;;;;;25.95;48.30;101407.84;7389669;19;1485;-44
2023/09/07 10:16:59;;;;;;;;;;;;;;;25.93;48.58;101412.56;7386658;19;1395;-44
2023/09/07 10:19:28;;;;;;;;;;;;;;;25.94;48.56;101419.69;7386200;19;1628;-44
2023/09/07 10:21:57;;;;;;;;;;;;;;;25.93;48.52;101420.72;7388381;19;1530;-44
2023/09/07 10:24:26;;;;;;;;;;;;;;;25.93;48.51;101424.25;7385959;19;1512;-44
2023/09/07 10:27:02;;;;;;;;;;;;;;;25.92;48.72;101400.88;7386311;19;1492;-44
2023/09/07 10:29:30;;;;;;;;;;;;;;;25.92;49.05;101403.56;7387950;19;1655;-44
2023/09/07 10:32:08;;;;;;;;;;;;;;;25.95;49.26;101405.13;7386848;19;2561;-44
2023/09/07 10:34:39;;;;;;;;;;;;;;;25.95;49.05;101407.84;7393934;19;1690;-44
2023/09/07 10:37:10;;;;;;;;;;;;;;;25.92;49.30;101406.28;7386644;19;2057;-45
2023/09/07 10:39:38;;;;;;;;;;;;;;;25.91;49.40;101392.94;7388641;19;1797;-45
2023/09/07 10:42:07;;;;;;;;;;;;;;;25.89;49.55;101384.94;7394692;19;1797;-45
2023/09/07 10:44:35;;;;;;;;;;;;;;;25.85;49.67;101374.59;7389805;19;1747;-44
2023/09/07 10:47:06;;;;;;;;;;;;;;;25.90;49.50;101389.34;7395859;19;1441;-44
2023/09/07 10:49:34;;;;;;;;;;;;;;;25.86;49.50;101379.00;7393652;19;1270;-45
2023/09/07 10:52:04;;;;;;;;;;;;;;;25.88;49.39;101387.78;7392898;19;1807;-45
2023/09/07 10:54:32;;;;;;;;;;;;;;;25.86;49.50;101385.25;7394298;19;1717;-45
2023/09/07 10:57:09;;;;;;;;;;;;;;;25.86;49.87;101379.81;7397001;19;1785;-44
2023/09/07 10:59:38;;;;;;;;;;;;;;;25.88;49.70;101361.53;7396090;19;1799;-44
2023/09/07 11:02:09;;;;;;;;;;;;;;;25.90;49.75;101374.94;7396424;19;1576;-45
2023/09/07 11:04:37;;;;;;;;;;;;;;;25.90;49.99;101369.50;7393651;19;1903;-44
2023/09/07 11:07:06;;;;;;;;;;;;;;;25.88;50.09;101356.13;7393536;19;1953;-45
2023/09/07 11:09:34;;;;;;;;;;;;;;;25.88;50.03;101368.81;7391009;19;1837;-44
2023/09/07 11:12:06;;;;;;;;;;;;;;;25.91;50.05;101360.41;7395581;19;1742;-45
2023/09/07 11:14:34;;;;;;;;;;;;;;;25.88;50.46;101347.16;7393826;19;1765;-44
2023/09/07 11:17:03;;;;;;;;;;;;;;;25.88;50.26;101333.59;7393593;19;1366;-43
2023/09/07 11:19:37;;;;;;;;;;;;;;;25.89;50.34;101354.28;7390456;19;1476;-45
2023/09/07 11:22:05;;;;;;;;;;;;;;;25.86;50.72;101341.91;7393799;19;1531;-44
2023/09/07 11:24:34;;;;;;;;;;;;;;;25.84;50.63;101318.69;7393019;19;1383;-45
2023/09/07 11:27:03;;;;;;;;;;;;;;;25.85;50.80;101340.22;7392231;19;2370;-44
2023/09/07 11:29:33;;;;;;;;;;;;;;;25.91;50.59;101333.31;7392512;19;1842;-45
2023/09/07 11:32:08;;;;;;;;;;;;;;;25.92;50.46;101338.53;7394334;19;1770;-44
2023/09/07 11:34:49;;;;;;;;;;;;;;;25.93;50.72;101332.13;7391970;19;1970;-43
2023/09/07 11:37:17;;;;;;;;;;;;;;;25.94;50.77;101327.53;7392316;19;1894;-43
2023/09/07 11:39:45;;;;;;;;;;;;;;;25.92;50.82;101324.16;7392646;19;1334;-44
2023/09/07 11:42:14;;;;;;;;;;;;;;;25.84;50.99;101326.81;7392889;19;1793;-43
2023/09/07 11:44:42;;;;;;;;;;;;;;;26.00;50.52;101324.16;7392901;19;1792;-43
2023/09/07 11:47:10;;;;;;;;;;;;;;;25.91;51.10;101327.91;7391047;19;1513;-44
2023/09/07 11:49:41;;;;;;;;;;;;;;;25.87;51.16;101321.94;7387435;19;1870;-43
2023/09/07 11:52:10;;;;;;;;;;;;;;;25.88;51.27;101314.63;7393256;19;1552;-45
2023/09/07 11:54:38;;;;;;;;;;;;;;;25.86;51.47;101305.84;7393636;19;1325;-44
2023/09/07 11:57:06;;;;;;;;;;;;;;;25.91;51.16;101339.56;7391188;19;1827;-47
2023/09/07 11:59:35;;;;;;;;;;;;;;;25.94;51.08;101317.56;7391689;19;1591;-44
2023/09/07 12:02:04;;;;;;;;;;;;;;;25.99;51.21;101315.19;7391932;19;1455;-45
2023/09/07 12:04:33;;;;;;;;;;;;;;;25.97;51.45;101317.22;7390197;19;1397;-43
2023/09/07 12:07:04;;;;;;;;;;;;;;;25.95;51.25;101310.28;7390926;19;1520;-44
2023/09/07 12:09:32;;;;;;;;;;;;;;;25.97;51.30;101311.81;7391446;19;1861;-44
2023/09/07 12:12:00;;;;;;;;;;;;;;;25.97;51.44;101310.97;7393983;19;1300;-44
2023/09/07 12:14:29;;;;;;;;;;;;;;;25.95;51.58;101302.16;7392730;19;1671;-45
2023/09/07 12:16:57;;;;;;;;;;;;;;;25.91;51.72;101306.22;7391877;19;1517;-44
2023/09/07 12:19:25;;;;;;;;;;;;;;;25.89;51.58;101297.38;7391168;19;1441;-43
2023/09/07 12:21:54;;;;;;;;;;;;;;;25.92;52.08;101291.63;7391670;19;1400;-45
2023/09/07 12:24:24;;;;;;;;;;;;;;;25.89;51.95;101295.50;7391156;19;1419;-45
2023/09/07 12:26:53;;;;;;;;;;;;;;;25.91;52.22;101308.94;7390179;19;1465;-44
2023/09/07 12:29:22;;;;;;;;;;;;;;;25.90;52.31;101320.75;7390141;19;1846;-45
2023/09/07 12:31:50;;;;;;;;;;;;;;;25.90;52.41;101304.47;7392208;19;1127;-45
2023/09/07 12:34:19;;;;;;;;;;;;;;;25.90;52.18;101301.78;7390195;19;1853;-45
2023/09/07 12:36:47;;;;;;;;;;;;;;;25.93;52.39;101312.31;7389043;19;1417;-45
2023/09/07 12:39:17;;;;;;;;;;;;;;;25.90;52.37;101299.06;7389707;19;1358;-45
2023/09/07 12:41:48;;;;;;;;;;;;;;;25.87;52.55;101312.97;7388906;19;1456;-44
2023/09/07 12:44:18;;;;;;;;;;;;;;;25.90;52.39;101289.09;7390343;19;1389;-45
2023/09/07 12:46:46;;;;;;;;;;;;;;;25.92;52.38;101313.31;7392552;19;1565;-45
2023/09/07 12:49:14;;;;;;;;;;;;;;;25.90;52.63;101297.22;7385721;19;1845;-43
2023/09/07 12:51:43;;;;;;;;;;;;;;;25.86;52.42;101287.69;7392429;19;1033;-44
2023/09/07 12:54:11;;;;;;;;;;;;;;;25.90;52.80;101294.50;7387168;19;1815;-45
2023/09/07 12:56:39;;;;;;;;;;;;;;;25.89;52.77;101300.94;7389500;19;1766;-45
2023/09/07 12:59:10;;;;;;;;;;;;;;;25.86;52.77;101297.69;7389853;19;1908;-44
2023/09/07 13:01:39;;;;;;;;;;;;;;;25.83;52.71;101292.63;7392591;19;1804;-43
2023/09/07 13:04:07;;;;;;;;;;;;;;;25.86;52.78;101298.53;7391879;19;1813;-44
2023/09/07 13:06:35;;;;;;;;;;;;;;;25.84;52.93;101300.56;7390002;19;1492;-44